sensor_id;sensor_type;location;lat;lon;timestamp;temperature;humidity
18932;DHT22;9598;50.954;3.112;2023-05-14T00:02:23;13.30;99.90
18932;DHT22;9598;50.954;3.112;2023-05-14T00:07:25;13.30;99.90
18932;DHT22;9598;50.954;3.112;2023-05-14T00:12:31;13.30;99.90
18932;DHT22;9598;50.954;3.112;2023-05-14T00:17:33;13.30;99.90
18932;DHT22;9598;50.954;3.112;2023-05-14T00:22:35;13.30;99.90
18932;DHT22;9598;50.954;3.112;2023-05-14T00:27:39;13.30;99.90
18932;DHT22;9598;50.954;3.112;2023-05-14T00:32:41;13.20;99.90
18932;DHT22;9598;50.954;3.112;2023-05-14T00:37:43;13.20;99.90
18932;DHT22;9598;50.954;3.112;2023-05-14T00:42:47;13.30;99.90
18932;DHT22;9598;50.954;3.112;2023-05-14T00:47:49;13.20;99.90
18932;DHT22;9598;50.954;3.112;2023-05-14T00:52:51;13.20;99.90
18932;DHT22;9598;50.954;3.112;2023-05-14T00:57:57;13.20;99.90
18932;DHT22;9598;50.954;3.112;2023-05-14T01:03:00;13.20;99.90
18932;DHT22;9598;50.954;3.112;2023-05-14T01:08:11;13.20;99.90
18932;DHT22;9598;50.954;3.112;2023-05-14T01:13:21;13.20;99.90
18932;DHT22;9598;50.954;3.112;2023-05-14T01:18:27;13.10;99.90
18932;DHT22;9598;50.954;3.112;2023-05-14T01:23:33;13.10;99.90
18932;DHT22;9598;50.954;3.112;2023-05-14T01:28:36;13.10;99.90
18932;DHT22;9598;50.954;3.112;2023-05-14T01:33:41;13.10;99.90
18932;DHT22;9598;50.954;3.112;2023-05-14T01:38:48;13.10;99.90
18932;DHT22;9598;50.954;3.112;2023-05-14T01:43:51;13.10;99.90
18932;DHT22;9598;50.954;3.112;2023-05-14T01:48:53;13.00;99.90
18932;DHT22;9598;50.954;3.112;2023-05-14T01:53:57;13.00;99.90
18932;DHT22;9598;50.954;3.112;2023-05-14T01:58:59;12.90;99.90
18932;DHT22;9598;50.954;3.112;2023-05-14T02:04:01;12.90;99.90
18932;DHT22;9598;50.954;3.112;2023-05-14T02:09:04;12.90;99.90
18932;DHT22;9598;50.954;3.112;2023-05-14T02:14:07;12.90;99.90
18932;DHT22;9598;50.954;3.112;2023-05-14T02:19:09;12.90;99.90
18932;DHT22;9598;50.954;3.112;2023-05-14T02:24:13;12.90;99.90
18932;DHT22;9598;50.954;3.112;2023-05-14T02:29:15;13.00;99.90
18932;DHT22;9598;50.954;3.112;2023-05-14T02:34:17;13.00;99.90
18932;DHT22;9598;50.954;3.112;2023-05-14T02:39:21;13.00;99.90
18932;DHT22;9598;50.954;3.112;2023-05-14T02:44:23;13.10;99.90
18932;DHT22;9598;50.954;3.112;2023-05-14T02:49:25;13.00;99.90
18932;DHT22;9598;50.954;3.112;2023-05-14T02:54:28;13.10;99.90
18932;DHT22;9598;50.954;3.112;2023-05-14T02:59:30;13.00;99.90
18932;DHT22;9598;50.954;3.112;2023-05-14T03:04:32;13.00;99.90
18932;DHT22;9598;50.954;3.112;2023-05-14T03:09:36;13.00;99.90
18932;DHT22;9598;50.954;3.112;2023-05-14T03:14:38;13.00;99.90
18932;DHT22;9598;50.954;3.112;2023-05-14T03:19:40;13.00;99.90
18932;DHT22;9598;50.954;3.112;2023-05-14T03:24:43;13.00;99.90
18932;DHT22;9598;50.954;3.112;2023-05-14T03:29:45;13.00;99.90
18932;DHT22;9598;50.954;3.112;2023-05-14T03:34:47;13.10;99.90
18932;DHT22;9598;50.954;3.112;2023-05-14T03:39:51;13.10;99.90
18932;DHT22;9598;50.954;3.112;2023-05-14T03:44:53;13.10;99.90
18932;DHT22;9598;50.954;3.112;2023-05-14T03:49:56;13.10;99.90
18932;DHT22;9598;50.954;3.112;2023-05-14T03:55:00;13.10;99.90
18932;DHT22;9598;50.954;3.112;2023-05-14T04:00:03;13.00;99.90
18932;DHT22;9598;50.954;3.112;2023-05-14T04:05:17;13.00;99.90
18932;DHT22;9598;50.954;3.112;2023-05-14T04:10:21;13.00;99.90
18932;DHT22;9598;50.954;3.112;2023-05-14T04:15:23;12.90;99.90
18932;DHT22;9598;50.954;3.112;2023-05-14T04:20:26;12.90;99.90
18932;DHT22;9598;50.954;3.112;2023-05-14T04:25:30;12.90;99.90
18932;DHT22;9598;50.954;3.112;2023-05-14T04:30:32;12.80;99.90
18932;DHT22;9598;50.954;3.112;2023-05-14T04:35:34;12.80;99.90
18932;DHT22;9598;50.954;3.112;2023-05-14T04:40:37;12.70;99.90
18932;DHT22;9598;50.954;3.112;2023-05-14T04:45:39;12.70;99.90
18932;DHT22;9598;50.954;3.112;2023-05-14T04:50:42;12.60;99.90
18932;DHT22;9598;50.954;3.112;2023-05-14T04:55:46;12.60;99.90
18932;DHT22;9598;50.954;3.112;2023-05-14T05:00:48;12.60;99.90
18932;DHT22;9598;50.954;3.112;2023-05-14T05:05:50;12.60;99.90
18932;DHT22;9598;50.954;3.112;2023-05-14T05:10:54;12.70;99.90
18932;DHT22;9598;50.954;3.112;2023-05-14T05:15:56;12.80;99.90
18932;DHT22;9598;50.954;3.112;2023-05-14T05:20:58;12.80;99.90
18932;DHT22;9598;50.954;3.112;2023-05-14T05:26:01;12.70;99.90
18932;DHT22;9598;50.954;3.112;2023-05-14T05:31:04;12.70;99.90
18932;DHT22;9598;50.954;3.112;2023-05-14T05:36:06;12.70;99.90
18932;DHT22;9598;50.954;3.112;2023-05-14T05:41:10;12.70;99.90
18932;DHT22;9598;50.954;3.112;2023-05-14T05:46:12;12.80;99.90
18932;DHT22;9598;50.954;3.112;2023-05-14T05:51:14;12.80;99.90
18932;DHT22;9598;50.954;3.112;2023-05-14T05:56:17;12.90;99.90
18932;DHT22;9598;50.954;3.112;2023-05-14T06:01:19;12.90;99.90
18932;DHT22;9598;50.954;3.112;2023-05-14T06:06:22;12.90;99.90
18932;DHT22;9598;50.954;3.112;2023-05-14T06:11:25;12.90;99.90
18932;DHT22;9598;50.954;3.112;2023-05-14T06:16:27;12.90;99.90
18932;DHT22;9598;50.954;3.112;2023-05-14T06:21:29;12.90;99.90
18932;DHT22;9598;50.954;3.112;2023-05-14T06:26:33;12.90;99.90
18932;DHT22;9598;50.954;3.112;2023-05-14T06:31:35;12.90;99.90
18932;DHT22;9598;50.954;3.112;2023-05-14T06:36:37;13.00;99.90
18932;DHT22;9598;50.954;3.112;2023-05-14T06:41:41;13.00;99.90
18932;DHT22;9598;50.954;3.112;2023-05-14T06:46:48;13.00;99.90
18932;DHT22;9598;50.954;3.112;2023-05-14T06:51:50;13.00;99.90
18932;DHT22;9598;50.954;3.112;2023-05-14T06:56:55;13.10;99.90
18932;DHT22;9598;50.954;3.112;2023-05-14T07:01:57;13.10;99.90
18932;DHT22;9598;50.954;3.112;2023-05-14T07:06:59;13.10;99.90
18932;DHT22;9598;50.954;3.112;2023-05-14T07:12:03;13.20;99.90
18932;DHT22;9598;50.954;3.112;2023-05-14T07:17:05;13.30;99.90
18932;DHT22;9598;50.954;3.112;2023-05-14T07:22:07;13.20;99.90
18932;DHT22;9598;50.954;3.112;2023-05-14T07:27:11;13.30;99.90
18932;DHT22;9598;50.954;3.112;2023-05-14T07:32:13;13.30;99.90
18932;DHT22;9598;50.954;3.112;2023-05-14T07:37:15;13.30;99.90
18932;DHT22;9598;50.954;3.112;2023-05-14T07:42:18;13.30;99.90
18932;DHT22;9598;50.954;3.112;2023-05-14T07:47:20;13.40;99.90
18932;DHT22;9598;50.954;3.112;2023-05-14T07:52:23;13.40;99.90
18932;DHT22;9598;50.954;3.112;2023-05-14T07:57:26;13.40;99.90
18932;DHT22;9598;50.954;3.112;2023-05-14T08:02:28;13.50;99.90
18932;DHT22;9598;50.954;3.112;2023-05-14T08:07:31;13.50;99.90
18932;DHT22;9598;50.954;3.112;2023-05-14T08:12:34;13.60;99.90
18932;DHT22;9598;50.954;3.112;2023-05-14T08:17:36;13.70;99.90
18932;DHT22;9598;50.954;3.112;2023-05-14T08:22:39;13.70;99.90
18932;DHT22;9598;50.954;3.112;2023-05-14T08:27:42;13.80;99.90
18932;DHT22;9598;50.954;3.112;2023-05-14T08:32:44;14.00;99.90
18932;DHT22;9598;50.954;3.112;2023-05-14T08:37:46;14.10;99.90
18932;DHT22;9598;50.954;3.112;2023-05-14T08:42:52;14.30;99.90
18932;DHT22;9598;50.954;3.112;2023-05-14T08:47:55;14.30;99.90
18932;DHT22;9598;50.954;3.112;2023-05-14T08:52:58;14.50;99.90
18932;DHT22;9598;50.954;3.112;2023-05-14T08:58:01;14.60;99.90
18932;DHT22;9598;50.954;3.112;2023-05-14T09:03:04;14.70;99.90
18932;DHT22;9598;50.954;3.112;2023-05-14T09:08:07;14.90;99.90
18932;DHT22;9598;50.954;3.112;2023-05-14T09:13:11;15.00;99.90
18932;DHT22;9598;50.954;3.112;2023-05-14T09:18:13;15.20;99.90
18932;DHT22;9598;50.954;3.112;2023-05-14T09:23:16;15.30;99.90
18932;DHT22;9598;50.954;3.112;2023-05-14T09:28:21;15.40;99.90
18932;DHT22;9598;50.954;3.112;2023-05-14T09:33:28;15.60;99.90
18932;DHT22;9598;50.954;3.112;2023-05-14T09:38:31;15.90;99.90
18932;DHT22;9598;50.954;3.112;2023-05-14T09:43:34;16.00;99.90
18932;DHT22;9598;50.954;3.112;2023-05-14T09:48:37;16.20;99.90
18932;DHT22;9598;50.954;3.112;2023-05-14T09:53:39;16.30;99.90
18932;DHT22;9598;50.954;3.112;2023-05-14T09:58:43;16.50;99.90
18932;DHT22;9598;50.954;3.112;2023-05-14T10:03:45;16.60;99.90
18932;DHT22;9598;50.954;3.112;2023-05-14T10:08:48;16.80;99.90
18932;DHT22;9598;50.954;3.112;2023-05-14T10:13:59;16.90;99.90
18932;DHT22;9598;50.954;3.112;2023-05-14T10:19:07;17.10;99.90
18932;DHT22;9598;50.954;3.112;2023-05-14T10:24:11;17.20;99.90
18932;DHT22;9598;50.954;3.112;2023-05-14T10:29:15;17.50;99.90
18932;DHT22;9598;50.954;3.112;2023-05-14T10:34:38;17.70;99.90
18932;DHT22;9598;50.954;3.112;2023-05-14T10:39:46;17.90;99.90
18932;DHT22;9598;50.954;3.112;2023-05-14T10:44:52;17.90;99.90
18932;DHT22;9598;50.954;3.112;2023-05-14T10:49:58;18.00;99.90
18932;DHT22;9598;50.954;3.112;2023-05-14T10:55:01;18.10;99.90
18932;DHT22;9598;50.954;3.112;2023-05-14T11:00:09;18.30;99.90
18932;DHT22;9598;50.954;3.112;2023-05-14T11:05:13;18.50;99.90
18932;DHT22;9598;50.954;3.112;2023-05-14T11:10:18;18.70;99.90
18932;DHT22;9598;50.954;3.112;2023-05-14T11:15:24;18.70;99.90
18932;DHT22;9598;50.954;3.112;2023-05-14T11:20:27;18.80;99.90
18932;DHT22;9598;50.954;3.112;2023-05-14T11:25:30;19.00;99.90
18932;DHT22;9598;50.954;3.112;2023-05-14T11:30:34;19.20;99.90
18932;DHT22;9598;50.954;3.112;2023-05-14T11:35:36;19.30;99.90
18932;DHT22;9598;50.954;3.112;2023-05-14T11:40:39;19.50;99.90
18932;DHT22;9598;50.954;3.112;2023-05-14T11:45:42;19.60;99.90
18932;DHT22;9598;50.954;3.112;2023-05-14T11:50:46;19.80;99.90
18932;DHT22;9598;50.954;3.112;2023-05-14T11:55:49;19.90;99.90
18932;DHT22;9598;50.954;3.112;2023-05-14T12:00:55;20.00;99.90
18932;DHT22;9598;50.954;3.112;2023-05-14T12:05:58;19.90;99.90
18932;DHT22;9598;50.954;3.112;2023-05-14T12:11:01;20.00;99.90
18932;DHT22;9598;50.954;3.112;2023-05-14T12:16:04;20.10;99.90
18932;DHT22;9598;50.954;3.112;2023-05-14T12:21:07;20.30;99.90
18932;DHT22;9598;50.954;3.112;2023-05-14T12:26:11;20.40;99.90
18932;DHT22;9598;50.954;3.112;2023-05-14T12:31:16;20.30;99.90
18932;DHT22;9598;50.954;3.112;2023-05-14T12:36:18;20.40;99.90
18932;DHT22;9598;50.954;3.112;2023-05-14T12:41:20;20.50;99.90
18932;DHT22;9598;50.954;3.112;2023-05-14T12:46:24;20.60;99.90
18932;DHT22;9598;50.954;3.112;2023-05-14T12:51:27;20.80;99.90
18932;DHT22;9598;50.954;3.112;2023-05-14T12:56:29;20.80;99.90
18932;DHT22;9598;50.954;3.112;2023-05-14T13:01:33;20.80;99.90
18932;DHT22;9598;50.954;3.112;2023-05-14T13:06:35;20.70;99.90
18932;DHT22;9598;50.954;3.112;2023-05-14T13:11:37;20.70;99.90
18932;DHT22;9598;50.954;3.112;2023-05-14T13:16:41;20.60;99.90
18932;DHT22;9598;50.954;3.112;2023-05-14T13:21:43;20.60;99.90
18932;DHT22;9598;50.954;3.112;2023-05-14T13:26:45;20.40;99.90
18932;DHT22;9598;50.954;3.112;2023-05-14T13:31:49;20.30;99.90
18932;DHT22;9598;50.954;3.112;2023-05-14T13:36:51;20.30;99.90
18932;DHT22;9598;50.954;3.112;2023-05-14T13:41:53;20.10;99.90
18932;DHT22;9598;50.954;3.112;2023-05-14T13:46:57;20.10;99.90
18932;DHT22;9598;50.954;3.112;2023-05-14T13:51:59;20.10;99.90
18932;DHT22;9598;50.954;3.112;2023-05-14T13:57:02;19.90;99.90
18932;DHT22;9598;50.954;3.112;2023-05-14T14:02:05;19.70;99.90
18932;DHT22;9598;50.954;3.112;2023-05-14T14:07:08;19.60;99.90
18932;DHT22;9598;50.954;3.112;2023-05-14T14:12:10;19.50;99.90
18932;DHT22;9598;50.954;3.112;2023-05-14T14:17:13;19.50;99.90
18932;DHT22;9598;50.954;3.112;2023-05-14T14:22:15;19.50;99.90
18932;DHT22;9598;50.954;3.112;2023-05-14T14:27:18;19.50;99.90
18932;DHT22;9598;50.954;3.112;2023-05-14T14:32:21;19.50;99.90
18932;DHT22;9598;50.954;3.112;2023-05-14T14:37:23;19.40;99.90
18932;DHT22;9598;50.954;3.112;2023-05-14T14:42:26;19.20;99.90
18932;DHT22;9598;50.954;3.112;2023-05-14T14:47:29;19.10;99.90
18932;DHT22;9598;50.954;3.112;2023-05-14T14:52:32;19.10;99.90
18932;DHT22;9598;50.954;3.112;2023-05-14T14:57:34;19.20;99.90
18932;DHT22;9598;50.954;3.112;2023-05-14T15:02:37;19.20;99.90
18932;DHT22;9598;50.954;3.112;2023-05-14T15:07:42;19.10;99.90
18932;DHT22;9598;50.954;3.112;2023-05-14T15:12:45;18.90;99.90
18932;DHT22;9598;50.954;3.112;2023-05-14T15:17:50;18.70;99.90
18932;DHT22;9598;50.954;3.112;2023-05-14T15:22:52;18.60;99.90
18932;DHT22;9598;50.954;3.112;2023-05-14T15:27:54;18.60;99.90
18932;DHT22;9598;50.954;3.112;2023-05-14T15:32:58;18.60;99.90
18932;DHT22;9598;50.954;3.112;2023-05-14T15:38:00;18.50;99.90
18932;DHT22;9598;50.954;3.112;2023-05-14T15:43:02;18.60;99.90
18932;DHT22;9598;50.954;3.112;2023-05-14T15:48:06;18.60;99.90
18932;DHT22;9598;50.954;3.112;2023-05-14T15:53:08;18.60;99.90
18932;DHT22;9598;50.954;3.112;2023-05-14T15:58:10;18.50;99.90
18932;DHT22;9598;50.954;3.112;2023-05-14T16:03:13;18.40;99.90
18932;DHT22;9598;50.954;3.112;2023-05-14T16:08:15;18.40;99.90
18932;DHT22;9598;50.954;3.112;2023-05-14T16:13:18;18.40;99.90
18932;DHT22;9598;50.954;3.112;2023-05-14T16:18:21;18.20;99.90
18932;DHT22;9598;50.954;3.112;2023-05-14T16:23:24;18.20;99.90
18932;DHT22;9598;50.954;3.112;2023-05-14T16:28:27;18.10;99.90
18932;DHT22;9598;50.954;3.112;2023-05-14T16:33:30;18.10;99.90
18932;DHT22;9598;50.954;3.112;2023-05-14T16:38:32;18.10;99.90
18932;DHT22;9598;50.954;3.112;2023-05-14T16:43:34;18.00;99.90
18932;DHT22;9598;50.954;3.112;2023-05-14T16:48:38;17.90;99.90
18932;DHT22;9598;50.954;3.112;2023-05-14T16:53:40;17.80;99.90
18932;DHT22;9598;50.954;3.112;2023-05-14T16:58:42;17.80;99.90
18932;DHT22;9598;50.954;3.112;2023-05-14T17:03:46;17.70;99.90
18932;DHT22;9598;50.954;3.112;2023-05-14T17:08:48;17.50;99.90
18932;DHT22;9598;50.954;3.112;2023-05-14T17:13:51;17.50;99.90
18932;DHT22;9598;50.954;3.112;2023-05-14T17:18:54;17.40;99.90
18932;DHT22;9598;50.954;3.112;2023-05-14T17:23:56;17.40;99.90
18932;DHT22;9598;50.954;3.112;2023-05-14T17:28:59;17.30;99.90
18932;DHT22;9598;50.954;3.112;2023-05-14T17:34:02;17.10;99.90
18932;DHT22;9598;50.954;3.112;2023-05-14T17:39:05;17.10;99.90
18932;DHT22;9598;50.954;3.112;2023-05-14T17:44:07;17.10;99.90
18932;DHT22;9598;50.954;3.112;2023-05-14T17:49:11;17.10;99.90
18932;DHT22;9598;50.954;3.112;2023-05-14T17:54:13;17.10;99.90
18932;DHT22;9598;50.954;3.112;2023-05-14T17:59:15;17.10;99.90
18932;DHT22;9598;50.954;3.112;2023-05-14T18:04:18;17.10;99.90
18932;DHT22;9598;50.954;3.112;2023-05-14T18:09:21;17.10;99.90
18932;DHT22;9598;50.954;3.112;2023-05-14T18:14:23;17.00;99.90
18932;DHT22;9598;50.954;3.112;2023-05-14T18:19:26;16.90;99.90
18932;DHT22;9598;50.954;3.112;2023-05-14T18:24:29;16.80;99.90
18932;DHT22;9598;50.954;3.112;2023-05-14T18:29:31;16.70;99.90
18932;DHT22;9598;50.954;3.112;2023-05-14T18:34:34;16.60;99.90
18932;DHT22;9598;50.954;3.112;2023-05-14T18:39:36;16.50;99.90
18932;DHT22;9598;50.954;3.112;2023-05-14T18:44:38;16.40;99.90
18932;DHT22;9598;50.954;3.112;2023-05-14T18:49:45;16.40;99.90
18932;DHT22;9598;50.954;3.112;2023-05-14T18:54:47;16.30;99.90
18932;DHT22;9598;50.954;3.112;2023-05-14T18:59:49;16.30;99.90
18932;DHT22;9598;50.954;3.112;2023-05-14T19:04:53;16.20;99.90
18932;DHT22;9598;50.954;3.112;2023-05-14T19:09:55;16.10;99.90
18932;DHT22;9598;50.954;3.112;2023-05-14T19:14:57;16.10;99.90
18932;DHT22;9598;50.954;3.112;2023-05-14T19:20:00;16.10;99.90
18932;DHT22;9598;50.954;3.112;2023-05-14T19:25:04;16.10;99.90
18932;DHT22;9598;50.954;3.112;2023-05-14T19:30:07;16.00;99.90
18932;DHT22;9598;50.954;3.112;2023-05-14T19:35:11;16.00;99.90
18932;DHT22;9598;50.954;3.112;2023-05-14T19:40:13;15.90;99.90
18932;DHT22;9598;50.954;3.112;2023-05-14T19:45:15;15.80;99.90
18932;DHT22;9598;50.954;3.112;2023-05-14T19:50:19;15.60;99.90
18932;DHT22;9598;50.954;3.112;2023-05-14T19:55:21;15.60;99.90
18932;DHT22;9598;50.954;3.112;2023-05-14T20:00:23;15.60;99.90
18932;DHT22;9598;50.954;3.112;2023-05-14T20:05:27;15.60;99.90
18932;DHT22;9598;50.954;3.112;2023-05-14T20:10:29;15.50;99.90
18932;DHT22;9598;50.954;3.112;2023-05-14T20:15:31;15.40;99.90
18932;DHT22;9598;50.954;3.112;2023-05-14T20:20:34;15.20;99.90
18932;DHT22;9598;50.954;3.112;2023-05-14T20:25:37;15.10;99.90
18932;DHT22;9598;50.954;3.112;2023-05-14T20:30:39;15.00;99.90
18932;DHT22;9598;50.954;3.112;2023-05-14T20:35:42;14.80;99.90
18932;DHT22;9598;50.954;3.112;2023-05-14T20:40:44;14.70;99.90
18932;DHT22;9598;50.954;3.112;2023-05-14T20:45:47;14.60;99.90
18932;DHT22;9598;50.954;3.112;2023-05-14T20:50:51;14.60;99.90
18932;DHT22;9598;50.954;3.112;2023-05-14T20:55:53;14.60;99.90
18932;DHT22;9598;50.954;3.112;2023-05-14T21:00:55;14.70;99.90
18932;DHT22;9598;50.954;3.112;2023-05-14T21:05:59;14.60;99.90
18932;DHT22;9598;50.954;3.112;2023-05-14T21:11:02;14.70;99.90
18932;DHT22;9598;50.954;3.112;2023-05-14T21:16:05;14.60;99.90
18932;DHT22;9598;50.954;3.112;2023-05-14T21:21:09;14.60;99.90
18932;DHT22;9598;50.954;3.112;2023-05-14T21:26:11;14.60;99.90
18932;DHT22;9598;50.954;3.112;2023-05-14T21:31:13;14.50;99.90
18932;DHT22;9598;50.954;3.112;2023-05-14T21:36:17;14.50;99.90
18932;DHT22;9598;50.954;3.112;2023-05-14T21:41:20;14.40;99.90
18932;DHT22;9598;50.954;3.112;2023-05-14T21:46:22;14.30;99.90
18932;DHT22;9598;50.954;3.112;2023-05-14T21:51:26;14.30;99.90
18932;DHT22;9598;50.954;3.112;2023-05-14T21:56:28;14.20;99.90
18932;DHT22;9598;50.954;3.112;2023-05-14T22:01:30;14.20;99.90
18932;DHT22;9598;50.954;3.112;2023-05-14T22:06:35;14.10;99.90
18932;DHT22;9598;50.954;3.112;2023-05-14T22:11:37;14.10;99.90
18932;DHT22;9598;50.954;3.112;2023-05-14T22:16:39;14.00;99.90
18932;DHT22;9598;50.954;3.112;2023-05-14T22:21:42;14.10;99.90
18932;DHT22;9598;50.954;3.112;2023-05-14T22:26:44;14.00;99.90
18932;DHT22;9598;50.954;3.112;2023-05-14T22:31:47;14.10;99.90
18932;DHT22;9598;50.954;3.112;2023-05-14T22:36:50;14.00;99.90
18932;DHT22;9598;50.954;3.112;2023-05-14T22:41:52;14.00;99.90
18932;DHT22;9598;50.954;3.112;2023-05-14T22:46:54;14.00;99.90
18932;DHT22;9598;50.954;3.112;2023-05-14T22:51:58;13.90;99.90
18932;DHT22;9598;50.954;3.112;2023-05-14T22:57:01;13.80;99.90
18932;DHT22;9598;50.954;3.112;2023-05-14T23:02:03;13.70;99.90
18932;DHT22;9598;50.954;3.112;2023-05-14T23:07:07;13.70;99.90
18932;DHT22;9598;50.954;3.112;2023-05-14T23:12:09;13.70;99.90
18932;DHT22;9598;50.954;3.112;2023-05-14T23:17:11;13.60;99.90
18932;DHT22;9598;50.954;3.112;2023-05-14T23:22:15;13.60;99.90
18932;DHT22;9598;50.954;3.112;2023-05-14T23:27:17;13.60;99.90
18932;DHT22;9598;50.954;3.112;2023-05-14T23:32:19;13.50;99.90
18932;DHT22;9598;50.954;3.112;2023-05-14T23:37:22;13.50;99.90
18932;DHT22;9598;50.954;3.112;2023-05-14T23:42:25;13.40;99.90
18932;DHT22;9598;50.954;3.112;2023-05-14T23:47:27;13.40;99.90
18932;DHT22;9598;50.954;3.112;2023-05-14T23:52:30;13.30;99.90
18932;DHT22;9598;50.954;3.112;2023-05-14T23:57:32;13.40;99.90
